Time;durP1;ratioP1;P1;durP2;ratioP2;P2;SDS_P1;SDS_P2;PMS_P1;PMS_P2;Temp;Humidity;BMP_temperature;BMP_pressure;BME280_temperature;BME280_humidity;BME280_pressure;Samples;Min_cycle;Max_cycle;Signal;HPM_P1;HPM_P2
2023/09/04 00:00:25;;;;;;;4.65;2.20;;;;;;;;;;5055608;28;20051;-63
2023/09/04 00:02:51;;;;;;;4.40;2.50;;;;;;;;;;5053142;28;20159;-63
2023/09/04 00:05:20;;;;;;;4.07;2.60;;;;;;;;;;5055020;28;20044;-63
2023/09/04 00:07:46;;;;;;;4.25;2.47;;;;;;;;;;5056964;28;20532;-63
2023/09/04 00:10:12;;;;;;;4.85;2.80;;;;;;;;;;5056428;28;20040;-63
2023/09/04 00:12:38;;;;;;;4.60;2.60;;;;;;;;;;5055811;28;20130;-63
2023/09/04 00:15:05;;;;;;;4.95;2.47;;;;;;;;;;5054055;28;20035;-63
2023/09/04 00:17:31;;;;;;;5.95;2.75;;;;;;;;;;5054879;28;20047;-63
2023/09/04 00:19:57;;;;;;;4.70;2.60;;;;;;;;;;5055162;28;20056;-63
2023/09/04 00:22:23;;;;;;;5.93;3.10;;;;;;;;;;5055660;28;20028;-63
2023/09/04 00:24:49;;;;;;;5.60;2.95;;;;;;;;;;5054712;28;20032;-63
2023/09/04 00:27:15;;;;;;;3.95;2.30;;;;;;;;;;5056232;28;20119;-63
2023/09/04 00:29:41;;;;;;;4.05;1.92;;;;;;;;;;5055746;28;20066;-63
2023/09/04 00:32:07;;;;;;;3.45;1.92;;;;;;;;;;5055045;28;20471;-63
2023/09/04 00:34:33;;;;;;;2.80;1.88;;;;;;;;;;5056223;28;20905;-63
2023/09/04 00:36:59;;;;;;;2.58;1.30;;;;;;;;;;5055397;28;21701;-63
2023/09/04 00:39:25;;;;;;;2.90;1.40;;;;;;;;;;5055495;28;20147;-63
2023/09/04 00:41:51;;;;;;;2.08;1.15;;;;;;;;;;5052962;28;20043;-63
2023/09/04 00:44:18;;;;;;;4.32;1.58;;;;;;;;;;5055537;28;20108;-63
2023/09/04 00:46:44;;;;;;;3.63;1.70;;;;;;;;;;5054595;28;20035;-64
2023/09/04 00:49:11;;;;;;;4.43;2.25;;;;;;;;;;5054735;28;21814;-63
2023/09/04 00:51:38;;;;;;;3.55;2.15;;;;;;;;;;5054547;28;20269;-63
2023/09/04 00:54:04;;;;;;;3.45;1.55;;;;;;;;;;5054941;28;20077;-63
2023/09/04 00:56:31;;;;;;;5.15;2.60;;;;;;;;;;5054301;28;20043;-63
2023/09/04 00:58:57;;;;;;;4.55;2.45;;;;;;;;;;5054608;28;20032;-63
2023/09/04 01:01:23;;;;;;;3.53;1.60;;;;;;;;;;5055110;28;20039;-63
2023/09/04 01:03:49;;;;;;;2.15;0.95;;;;;;;;;;5055687;28;20051;-63
2023/09/04 01:06:15;;;;;;;1.73;0.75;;;;;;;;;;5054555;28;20020;-63
2023/09/04 01:08:41;;;;;;;1.20;0.73;;;;;;;;;;5055393;28;20020;-63
2023/09/04 01:11:11;;;;;;;1.10;0.77;;;;;;;;;;5054063;28;20152;-63
2023/09/04 01:13:50;;;;;;;7.47;1.48;;;;;;;;;;5055381;28;20032;-63
2023/09/04 01:16:17;;;;;;;9.80;1.10;;;;;;;;;;5053836;28;20031;-63
2023/09/04 01:18:44;;;;;;;72.57;3.10;;;;;;;;;;5053368;28;20927;-63
2023/09/04 01:21:10;;;;;;;27.73;1.60;;;;;;;;;;5051453;28;20035;-63
2023/09/04 01:23:36;;;;;;;58.53;2.50;;;;;;;;;;5054425;28;20454;-63
2023/09/04 01:26:07;;;;;;;41.78;2.22;;;;;;;;;;5053600;28;20683;-63
2023/09/04 01:28:55;;;;;;;119.75;3.83;;;;;;;;;;5052466;28;20118;-63
2023/09/04 01:31:23;;;;;;;70.57;3.42;;;;;;;;;;5054773;28;20136;-63
2023/09/04 01:33:56;;;;;;;68.00;3.38;;;;;;;;;;5055340;28;20224;-63
2023/09/04 01:36:23;;;;;;;61.50;3.03;;;;;;;;;;5053187;28;21221;-63
2023/09/04 01:38:50;;;;;;;41.03;2.50;;;;;;;;;;5055004;28;20098;-63
2023/09/04 01:41:16;;;;;;;54.80;2.72;;;;;;;;;;5054839;28;20036;-63
2023/09/04 01:43:42;;;;;;;34.20;2.40;;;;;;;;;;5054949;28;21685;-63
2023/09/04 01:46:08;;;;;;;23.33;2.03;;;;;;;;;;5053904;28;20032;-63
2023/09/04 01:48:35;;;;;;;42.22;2.65;;;;;;;;;;5054245;28;20036;-63
2023/09/04 01:51:01;;;;;;;40.45;2.67;;;;;;;;;;5050077;28;20024;-63
2023/09/04 01:53:27;;;;;;;15.77;1.80;;;;;;;;;;5054560;28;20670;-63
2023/09/04 01:55:54;;;;;;;8.63;2.08;;;;;;;;;;5054693;28;20032;-63
2023/09/04 01:58:20;;;;;;;7.72;2.10;;;;;;;;;;5054848;28;20063;-63
2023/09/04 02:00:47;;;;;;;19.65;2.60;;;;;;;;;;5054569;28;20028;-63
2023/09/04 02:03:13;;;;;;;29.88;2.88;;;;;;;;;;5054658;28;20040;-64
2023/09/04 02:05:39;;;;;;;31.08;2.55;;;;;;;;;;5054352;28;20028;-63
2023/09/04 02:08:07;;;;;;;45.88;2.75;;;;;;;;;;5055530;28;20028;-63
2023/09/04 02:10:34;;;;;;;86.10;4.88;;;;;;;;;;5054025;28;20461;-63
2023/09/04 02:13:00;;;;;;;39.45;2.72;;;;;;;;;;5053427;28;20039;-63
2023/09/04 02:15:26;;;;;;;53.70;2.90;;;;;;;;;;5054193;28;20032;-63
2023/09/04 02:17:52;;;;;;;123.75;5.85;;;;;;;;;;5054810;28;20035;-62
2023/09/04 02:20:18;;;;;;;127.60;6.53;;;;;;;;;;5054404;28;20048;-63
2023/09/04 02:22:44;;;;;;;10.77;2.30;;;;;;;;;;5052721;28;20043;-63
2023/09/04 02:25:11;;;;;;;15.32;2.65;;;;;;;;;;5054119;28;20102;-63
2023/09/04 02:27:37;;;;;;;10.35;2.92;;;;;;;;;;5055053;28;20028;-63
2023/09/04 02:30:07;;;;;;;4.40;3.20;;;;;;;;;;5055295;28;20620;-63
2023/09/04 02:32:33;;;;;;;6.32;4.00;;;;;;;;;;5053482;28;20032;-63
2023/09/04 02:34:59;;;;;;;6.07;4.57;;;;;;;;;;5055098;28;20032;-63
2023/09/04 02:37:27;;;;;;;4.80;3.33;;;;;;;;;;5053954;28;20036;-63
2023/09/04 02:39:53;;;;;;;6.85;2.40;;;;;;;;;;5054354;28;20039;-63
2023/09/04 02:42:19;;;;;;;3.05;2.05;;;;;;;;;;5053376;28;20055;-63
2023/09/04 02:44:45;;;;;;;7.00;2.78;;;;;;;;;;5054111;28;20032;-63
2023/09/04 02:47:11;;;;;;;7.45;2.30;;;;;;;;;;5053906;28;20027;-63
2023/09/04 02:49:37;;;;;;;10.95;2.22;;;;;;;;;;5053804;28;20102;-63
2023/09/04 02:52:03;;;;;;;14.27;1.95;;;;;;;;;;5054021;28;20051;-63
2023/09/04 02:54:29;;;;;;;4.35;2.13;;;;;;;;;;5053388;28;20483;-63
2023/09/04 02:56:55;;;;;;;17.65;2.10;;;;;;;;;;5053627;28;20036;-63
2023/09/04 02:59:22;;;;;;;7.22;2.08;;;;;;;;;;5053596;28;20036;-63
2023/09/04 03:01:50;;;;;;;9.93;2.47;;;;;;;;;;5054057;28;20037;-63
2023/09/04 03:04:16;;;;;;;9.20;2.30;;;;;;;;;;5057906;28;20029;-63
2023/09/04 03:06:43;;;;;;;11.52;2.53;;;;;;;;;;5058107;28;20028;-63
2023/09/04 03:09:09;;;;;;;7.75;1.83;;;;;;;;;;5056260;28;20042;-63
2023/09/04 03:11:35;;;;;;;9.02;1.90;;;;;;;;;;5057712;28;20490;-63
2023/09/04 03:14:01;;;;;;;4.72;1.88;;;;;;;;;;5055800;28;20036;-63
2023/09/04 03:16:28;;;;;;;15.90;2.55;;;;;;;;;;5057556;28;20047;-63
2023/09/04 03:18:55;;;;;;;7.07;2.20;;;;;;;;;;5057721;28;20040;-63
2023/09/04 03:21:21;;;;;;;4.03;2.47;;;;;;;;;;5055598;28;20089;-63
2023/09/04 03:23:47;;;;;;;3.58;2.10;;;;;;;;;;5054603;28;20046;-63
2023/09/04 03:26:14;;;;;;;4.53;2.42;;;;;;;;;;5054945;28;20033;-63
2023/09/04 03:28:40;;;;;;;4.53;2.42;;;;;;;;;;5055496;28;20036;-63
2023/09/04 03:31:12;;;;;;;4.13;2.53;;;;;;;;;;5054174;28;20036;-63
2023/09/04 03:33:38;;;;;;;4.00;2.40;;;;;;;;;;5056599;28;20039;-63
2023/09/04 03:36:04;;;;;;;3.60;2.25;;;;;;;;;;5055895;28;20028;-63
2023/09/04 03:38:30;;;;;;;4.07;2.00;;;;;;;;;;5056336;28;20051;-63
2023/09/04 03:40:56;;;;;;;3.65;2.30;;;;;;;;;;5057240;28;20064;-63
2023/09/04 03:43:22;;;;;;;2.72;1.23;;;;;;;;;;5056994;28;20039;-63
2023/09/04 03:45:48;;;;;;;2.20;1.30;;;;;;;;;;5056931;28;20032;-63
2023/09/04 03:48:15;;;;;;;3.25;1.92;;;;;;;;;;5052885;28;20035;-63
2023/09/04 03:50:41;;;;;;;3.22;1.73;;;;;;;;;;5057532;28;20028;-63
2023/09/04 03:53:07;;;;;;;4.35;1.67;;;;;;;;;;5054961;28;20055;-63
2023/09/04 03:55:33;;;;;;;3.00;1.90;;;;;;;;;;5056176;28;20522;-63
2023/09/04 03:57:59;;;;;;;4.70;1.98;;;;;;;;;;5054639;28;20536;-63
2023/09/04 04:00:25;;;;;;;5.55;2.42;;;;;;;;;;5056329;28;20479;-63
2023/09/04 04:02:51;;;;;;;4.55;2.05;;;;;;;;;;5056412;28;21748;-63
2023/09/04 04:05:18;;;;;;;5.20;2.13;;;;;;;;;;5056147;28;20052;-63
2023/09/04 04:07:44;;;;;;;4.05;2.13;;;;;;;;;;5056905;28;20032;-62
2023/09/04 04:10:10;;;;;;;4.30;2.08;;;;;;;;;;5056445;28;20085;-63
2023/09/04 04:12:36;;;;;;;3.22;2.00;;;;;;;;;;5056278;28;20106;-63
2023/09/04 04:15:05;;;;;;;3.92;2.13;;;;;;;;;;5055727;28;20039;-62
2023/09/04 04:17:32;;;;;;;3.28;1.95;;;;;;;;;;5049892;28;20038;-63
2023/09/04 04:19:58;;;;;;;4.82;2.33;;;;;;;;;;5055986;28;20045;-63
2023/09/04 04:22:24;;;;;;;2.90;2.00;;;;;;;;;;5054574;28;20028;-63
2023/09/04 04:24:50;;;;;;;4.43;2.22;;;;;;;;;;5056335;28;20051;-63
2023/09/04 04:27:17;;;;;;;4.15;2.00;;;;;;;;;;5056999;28;20887;-62
2023/09/04 04:29:48;;;;;;;3.60;2.13;;;;;;;;;;5056165;28;20483;-62
2023/09/04 04:32:15;;;;;;;4.13;2.33;;;;;;;;;;5056460;28;20032;-63
2023/09/04 04:34:41;;;;;;;4.18;2.53;;;;;;;;;;5056553;28;21385;-63
2023/09/04 04:37:07;;;;;;;4.45;2.20;;;;;;;;;;5055518;28;20032;-63
2023/09/04 04:39:33;;;;;;;3.72;2.25;;;;;;;;;;5055941;28;20024;-63
2023/09/04 04:41:59;;;;;;;4.40;2.45;;;;;;;;;;5056306;28;20039;-63
2023/09/04 04:44:26;;;;;;;4.45;2.53;;;;;;;;;;5055170;28;20035;-63
2023/09/04 04:46:52;;;;;;;4.60;2.60;;;;;;;;;;5054783;28;20024;-63
2023/09/04 04:49:20;;;;;;;5.18;2.92;;;;;;;;;;5055890;28;20026;-63
2023/09/04 04:51:46;;;;;;;3.85;2.33;;;;;;;;;;5054669;28;20125;-62
2023/09/04 04:54:12;;;;;;;5.45;2.65;;;;;;;;;;5056326;28;20032;-62
2023/09/04 04:56:39;;;;;;;5.18;2.83;;;;;;;;;;5055245;28;20040;-62
2023/09/04 04:59:05;;;;;;;5.15;2.72;;;;;;;;;;5053895;28;20147;-62
2023/09/04 05:01:32;;;;;;;3.10;1.95;;;;;;;;;;5055023;28;20031;-63
2023/09/04 05:03:58;;;;;;;3.47;2.03;;;;;;;;;;5054917;28;20112;-62
2023/09/04 05:06:24;;;;;;;3.25;1.67;;;;;;;;;;5053945;28;20217;-63
2023/09/04 05:08:50;;;;;;;3.72;2.15;;;;;;;;;;5054886;28;20119;-62
2023/09/04 05:11:16;;;;;;;5.32;2.85;;;;;;;;;;5054229;28;20061;-63
2023/09/04 05:13:42;;;;;;;5.03;2.50;;;;;;;;;;5054786;28;20158;-62
2023/09/04 05:16:08;;;;;;;5.10;2.92;;;;;;;;;;5055913;28;20060;-62
2023/09/04 05:18:35;;;;;;;5.00;2.60;;;;;;;;;;5055265;28;20036;-62
2023/09/04 05:21:01;;;;;;;4.60;2.33;;;;;;;;;;5054545;28;20040;-62
2023/09/04 05:23:27;;;;;;;6.07;3.38;;;;;;;;;;5054501;28;20863;-63
2023/09/04 05:25:54;;;;;;;4.57;2.53;;;;;;;;;;5053571;28;20073;-62
2023/09/04 05:28:20;;;;;;;8.82;3.08;;;;;;;;;;5052269;28;20115;-63
2023/09/04 05:30:46;;;;;;;5.53;3.13;;;;;;;;;;5051684;28;21298;-63
2023/09/04 05:33:12;;;;;;;6.10;3.28;;;;;;;;;;5054332;28;20102;-63
2023/09/04 05:35:38;;;;;;;6.15;4.03;;;;;;;;;;5054213;28;20525;-63
2023/09/04 05:38:05;;;;;;;5.97;2.78;;;;;;;;;;5054693;28;20744;-63
2023/09/04 05:40:31;;;;;;;6.95;3.83;;;;;;;;;;5054650;28;20842;-63
2023/09/04 05:42:57;;;;;;;5.68;3.80;;;;;;;;;;5055153;28;20049;-63
2023/09/04 05:45:23;;;;;;;8.88;4.50;;;;;;;;;;5055305;28;20032;-63
2023/09/04 05:47:50;;;;;;;7.95;4.80;;;;;;;;;;5056031;28;20024;-63
2023/09/04 05:50:16;;;;;;;7.10;4.53;;;;;;;;;;5055000;28;21387;-63
2023/09/04 05:52:42;;;;;;;7.03;5.57;;;;;;;;;;5053899;28;20462;-63
2023/09/04 05:55:09;;;;;;;7.80;4.88;;;;;;;;;;5050313;28;20427;-62
2023/09/04 05:57:35;;;;;;;10.13;5.80;;;;;;;;;;5054213;28;20036;-62
2023/09/04 06:00:03;;;;;;;9.68;6.00;;;;;;;;;;5054316;28;20689;-63
2023/09/04 06:02:29;;;;;;;7.10;5.55;;;;;;;;;;5054422;28;20028;-62
2023/09/04 06:04:55;;;;;;;9.75;6.38;;;;;;;;;;5053182;28;20032;-63
2023/09/04 06:07:21;;;;;;;9.63;6.72;;;;;;;;;;5053449;28;20036;-63
2023/09/04 06:09:47;;;;;;;8.07;5.38;;;;;;;;;;5054650;28;20734;-63
2023/09/04 06:12:13;;;;;;;7.78;5.47;;;;;;;;;;5053959;28;21467;-63
2023/09/04 06:14:39;;;;;;;9.68;5.53;;;;;;;;;;5053400;28;20028;-63
2023/09/04 06:17:05;;;;;;;7.82;5.90;;;;;;;;;;5054095;28;20063;-63
2023/09/04 06:19:31;;;;;;;7.53;5.40;;;;;;;;;;5054292;28;20056;-63
2023/09/04 06:21:58;;;;;;;8.35;5.82;;;;;;;;;;5054273;28;21902;-63
2023/09/04 06:24:24;;;;;;;8.27;6.00;;;;;;;;;;5054270;28;20063;-63
2023/09/04 06:26:50;;;;;;;7.88;5.95;;;;;;;;;;5053613;28;20033;-63
2023/09/04 06:29:19;;;;;;;9.40;6.55;;;;;;;;;;5053910;28;20035;-63
2023/09/04 06:31:46;;;;;;;8.07;6.03;;;;;;;;;;5053093;28;21219;-63
2023/09/04 06:34:12;;;;;;;8.60;6.03;;;;;;;;;;5052229;28;20032;-63
2023/09/04 06:36:39;;;;;;;9.75;6.47;;;;;;;;;;5050769;28;20572;-63
2023/09/04 06:39:06;;;;;;;9.40;6.38;;;;;;;;;;5054246;28;20043;-63
2023/09/04 06:41:32;;;;;;;8.18;6.13;;;;;;;;;;5055096;28;20034;-63
2023/09/04 06:44:02;;;;;;;9.35;6.40;;;;;;;;;;5057922;28;20044;-63
2023/09/04 06:46:28;;;;;;;8.52;6.47;;;;;;;;;;5055366;28;20031;-63
2023/09/04 06:48:55;;;;;;;8.25;6.22;;;;;;;;;;5054377;28;20050;-63
2023/09/04 06:51:21;;;;;;;11.02;6.50;;;;;;;;;;5051920;28;21032;-69
2023/09/04 06:53:48;;;;;;;8.93;6.53;;;;;;;;;;5055706;28;20522;-68
2023/09/04 06:56:15;;;;;;;9.25;6.32;;;;;;;;;;5054964;28;20067;-69
2023/09/04 06:58:41;;;;;;;10.23;6.55;;;;;;;;;;5052398;28;20047;-69
2023/09/04 07:01:07;;;;;;;9.45;6.60;;;;;;;;;;5056268;28;20663;-69
2023/09/04 07:03:34;;;;;;;8.32;6.38;;;;;;;;;;5055462;28;20384;-68
2023/09/04 07:06:00;;;;;;;10.70;6.22;;;;;;;;;;5057961;28;20017;-68
2023/09/04 07:08:26;;;;;;;9.30;5.90;;;;;;;;;;5057424;28;20028;-68
2023/09/04 07:10:53;;;;;;;9.88;5.70;;;;;;;;;;5055269;28;20175;-68
2023/09/04 07:13:19;;;;;;;8.18;5.53;;;;;;;;;;5056754;28;20036;-69
2023/09/04 07:15:45;;;;;;;8.20;5.70;;;;;;;;;;5056602;28;20044;-68
2023/09/04 07:18:11;;;;;;;8.23;5.50;;;;;;;;;;5056884;28;20120;-69
2023/09/04 07:20:37;;;;;;;9.88;4.97;;;;;;;;;;5056252;28;20036;-68
2023/09/04 07:23:04;;;;;;;7.70;5.68;;;;;;;;;;5055545;28;20474;-68
2023/09/04 07:25:30;;;;;;;9.95;5.88;;;;;;;;;;5057003;28;20020;-68
2023/09/04 07:27:57;;;;;;;8.00;5.43;;;;;;;;;;5055537;28;20459;-68
2023/09/04 07:30:25;;;;;;;8.48;5.53;;;;;;;;;;5056032;28;20036;-68
2023/09/04 07:32:52;;;;;;;8.07;4.97;;;;;;;;;;5054030;28;20151;-69
2023/09/04 07:35:18;;;;;;;7.75;4.72;;;;;;;;;;5054238;28;21211;-68
2023/09/04 07:37:45;;;;;;;8.73;5.53;;;;;;;;;;5054924;28;20491;-68
2023/09/04 07:40:11;;;;;;;6.38;4.90;;;;;;;;;;5054944;28;20032;-69
2023/09/04 07:42:39;;;;;;;8.98;4.90;;;;;;;;;;5053854;28;21033;-69
2023/09/04 07:45:05;;;;;;;6.85;4.57;;;;;;;;;;5056930;28;20062;-68
2023/09/04 07:47:34;;;;;;;7.80;4.28;;;;;;;;;;5056439;28;20039;-68
2023/09/04 07:50:00;;;;;;;6.72;4.10;;;;;;;;;;5055432;28;20074;-68
2023/09/04 07:52:26;;;;;;;6.25;4.50;;;;;;;;;;5055547;28;20051;-69
2023/09/04 07:54:53;;;;;;;8.10;4.80;;;;;;;;;;5055757;28;20032;-68
2023/09/04 07:57:19;;;;;;;7.32;4.35;;;;;;;;;;5056254;28;20025;-69
2023/09/04 07:59:45;;;;;;;6.32;3.72;;;;;;;;;;5055442;28;20028;-69
2023/09/04 08:02:11;;;;;;;6.85;4.03;;;;;;;;;;5054446;28;20032;-69
2023/09/04 08:04:37;;;;;;;5.93;3.95;;;;;;;;;;5053469;28;21376;-69
2023/09/04 08:07:03;;;;;;;7.55;4.03;;;;;;;;;;5054618;28;20031;-68
2023/09/04 08:09:29;;;;;;;8.23;3.83;;;;;;;;;;5056455;28;21363;-68
2023/09/04 08:11:55;;;;;;;6.85;3.55;;;;;;;;;;5056344;28;20085;-69
2023/09/04 08:14:21;;;;;;;6.72;3.70;;;;;;;;;;5056728;28;20032;-69
2023/09/04 08:16:47;;;;;;;6.85;3.70;;;;;;;;;;5056670;28;20028;-68
2023/09/04 08:19:13;;;;;;;5.65;3.15;;;;;;;;;;5054210;28;20143;-68
2023/09/04 08:21:41;;;;;;;7.28;4.00;;;;;;;;;;5056511;28;20474;-69
2023/09/04 08:24:07;;;;;;;8.07;3.28;;;;;;;;;;5055603;28;20032;-68
2023/09/04 08:26:33;;;;;;;7.78;2.90;;;;;;;;;;5056406;28;20119;-69
2023/09/04 08:28:59;;;;;;;5.50;2.90;;;;;;;;;;5056887;28;20128;-69
2023/09/04 08:31:25;;;;;;;4.82;2.80;;;;;;;;;;5056759;28;20040;-69
2023/09/04 08:33:51;;;;;;;5.75;2.85;;;;;;;;;;5056906;28;20044;-68
2023/09/04 08:36:17;;;;;;;5.75;3.20;;;;;;;;;;5056502;28;20040;-69
2023/09/04 08:38:43;;;;;;;4.45;2.78;;;;;;;;;;5057067;28;20040;-69
2023/09/04 08:41:10;;;;;;;6.78;3.17;;;;;;;;;;5056751;28;20047;-70
2023/09/04 08:43:37;;;;;;;8.50;3.13;;;;;;;;;;5057217;28;20024;-69
2023/09/04 08:46:06;;;;;;;8.80;2.92;;;;;;;;;;5057258;28;20047;-69
2023/09/04 08:48:32;;;;;;;5.15;2.80;;;;;;;;;;5056814;28;20102;-69
2023/09/04 08:50:58;;;;;;;5.40;2.55;;;;;;;;;;5056989;28;20028;-68
2023/09/04 08:53:24;;;;;;;6.35;2.80;;;;;;;;;;5055651;28;20138;-69
2023/09/04 08:55:51;;;;;;;5.72;2.70;;;;;;;;;;5056611;28;20414;-69
2023/09/04 08:58:17;;;;;;;5.40;2.58;;;;;;;;;;5055611;28;20047;-69
2023/09/04 09:00:43;;;;;;;6.63;2.88;;;;;;;;;;5056422;28;20534;-69
2023/09/04 09:03:13;;;;;;;5.45;2.20;;;;;;;;;;5056551;28;20037;-69
2023/09/04 09:05:39;;;;;;;5.82;2.22;;;;;;;;;;5056655;28;20054;-69
2023/09/04 09:08:05;;;;;;;5.38;2.65;;;;;;;;;;5056857;28;20024;-69
2023/09/04 09:10:31;;;;;;;4.88;2.25;;;;;;;;;;5056071;28;20556;-70
2023/09/04 09:12:58;;;;;;;4.47;1.95;;;;;;;;;;5056527;28;20040;-69
2023/09/04 09:15:24;;;;;;;9.93;2.70;;;;;;;;;;5056135;28;20036;-69
2023/09/04 09:17:53;;;;;;;3.67;1.75;;;;;;;;;;5057012;28;20413;-69
2023/09/04 09:20:31;;;;;;;4.78;1.83;;;;;;;;;;5056104;28;20489;-69
2023/09/04 09:23:01;;;;;;;4.45;1.98;;;;;;;;;;5055400;28;20041;-69
2023/09/04 09:25:28;;;;;;;10.32;2.08;;;;;;;;;;5055852;28;20035;-69
2023/09/04 09:28:05;;;;;;;5.63;1.95;;;;;;;;;;5056186;28;21405;-69
2023/09/04 09:30:50;;;;;;;4.28;2.10;;;;;;;;;;5055901;28;20039;-69
2023/09/04 09:33:19;;;;;;;4.47;2.25;;;;;;;;;;5056167;28;20564;-69
2023/09/04 09:35:46;;;;;;;6.22;2.80;;;;;;;;;;5053810;28;20051;-70
2023/09/04 09:38:12;;;;;;;4.05;2.38;;;;;;;;;;5068739;28;20035;-69
2023/09/04 09:40:38;;;;;;;5.90;2.72;;;;;;;;;;5053903;28;20123;-69
2023/09/04 09:43:04;;;;;;;4.13;2.35;;;;;;;;;;5054473;28;20293;-69
2023/09/04 09:45:32;;;;;;;5.50;3.10;;;;;;;;;;5054371;28;20413;-69
2023/09/04 09:47:58;;;;;;;5.82;2.75;;;;;;;;;;5055040;28;20029;-70
2023/09/04 09:50:25;;;;;;;6.78;2.42;;;;;;;;;;5056214;28;20107;-69
2023/09/04 09:53:01;;;;;;;5.50;2.20;;;;;;;;;;5055123;28;20043;-69
2023/09/04 09:55:29;;;;;;;6.45;2.80;;;;;;;;;;5056314;28;20122;-69
2023/09/04 09:57:56;;;;;;;5.82;3.00;;;;;;;;;;5055294;28;20044;-70
2023/09/04 10:00:22;;;;;;;4.43;2.67;;;;;;;;;;5055652;28;20028;-69
2023/09/04 10:02:49;;;;;;;5.68;2.60;;;;;;;;;;5055657;28;20805;-69
2023/09/04 10:05:15;;;;;;;4.90;2.53;;;;;;;;;;5055600;28;20032;-69
2023/09/04 10:07:43;;;;;;;5.63;2.47;;;;;;;;;;5055912;28;20663;-69
2023/09/04 10:10:11;;;;;;;5.78;2.60;;;;;;;;;;5056076;28;20063;-70
2023/09/04 10:12:50;;;;;;;7.93;3.22;;;;;;;;;;5054772;28;20050;-69
2023/09/04 10:15:27;;;;;;;4.53;2.63;;;;;;;;;;5056006;28;20805;-69
2023/09/04 10:17:58;;;;;;;3.88;2.40;;;;;;;;;;5054980;28;20394;-69
2023/09/04 10:20:25;;;;;;;6.90;2.10;;;;;;;;;;5055411;28;20441;-69
2023/09/04 10:22:56;;;;;;;5.82;2.63;;;;;;;;;;5054923;28;20032;-69
2023/09/04 10:25:28;;;;;;;3.75;1.90;;;;;;;;;;5055527;28;20101;-69
2023/09/04 10:27:57;;;;;;;4.68;1.90;;;;;;;;;;5054750;28;20029;-70
2023/09/04 10:30:24;;;;;;;4.97;2.05;;;;;;;;;;5053857;28;20753;-69
2023/09/04 10:32:50;;;;;;;4.55;2.03;;;;;;;;;;5055091;28;20032;-69
2023/09/04 10:35:16;;;;;;;9.93;2.08;;;;;;;;;;5055733;28;20024;-69
2023/09/04 10:37:43;;;;;;;4.80;2.50;;;;;;;;;;5054699;28;20158;-69
2023/09/04 10:40:12;;;;;;;4.55;2.10;;;;;;;;;;5054983;28;20078;-69
2023/09/04 10:42:41;;;;;;;3.80;1.90;;;;;;;;;;5055378;28;20027;-69
2023/09/04 10:45:18;;;;;;;4.60;2.15;;;;;;;;;;5054794;28;20020;-70
2023/09/04 10:47:49;;;;;;;4.47;2.00;;;;;;;;;;5055757;28;20016;-69
2023/09/04 10:50:30;;;;;;;5.20;1.90;;;;;;;;;;5054411;28;20042;-64
2023/09/04 10:53:04;;;;;;;3.72;1.90;;;;;;;;;;5055271;28;20058;-64
2023/09/04 10:55:30;;;;;;;5.03;2.05;;;;;;;;;;5054834;28;20039;-64
2023/09/04 10:57:58;;;;;;;4.95;1.85;;;;;;;;;;5055028;28;20956;-64
2023/09/04 11:00:44;;;;;;;3.38;1.60;;;;;;;;;;5054530;28;20028;-64
2023/09/04 11:03:13;;;;;;;4.30;2.00;;;;;;;;;;5053436;28;20021;-63
2023/09/04 11:05:58;;;;;;;4.82;2.40;;;;;;;;;;5053870;28;20455;-64
2023/09/04 11:08:31;;;;;;;4.72;2.00;;;;;;;;;;5054753;28;20036;-64
2023/09/04 11:11:06;;;;;;;3.75;2.22;;;;;;;;;;5053518;28;20061;-64
2023/09/04 11:13:39;;;;;;;2.67;1.60;;;;;;;;;;5054665;28;20035;-64
2023/09/04 11:16:06;;;;;;;5.60;2.30;;;;;;;;;;5054539;28;20032;-64
2023/09/04 11:18:33;;;;;;;2.50;1.42;;;;;;;;;;5054857;28;20036;-64
2023/09/04 11:21:00;;;;;;;3.63;1.40;;;;;;;;;;5054015;28;20049;-64
2023/09/04 11:23:27;;;;;;;3.85;1.67;;;;;;;;;;5054668;28;20028;-64
2023/09/04 11:25:53;;;;;;;3.78;1.75;;;;;;;;;;5058423;28;20120;-64
2023/09/04 11:28:22;;;;;;;2.72;1.35;;;;;;;;;;5055274;28;20073;-64
2023/09/04 11:30:49;;;;;;;3.83;1.73;;;;;;;;;;5058265;28;20060;-64
2023/09/04 11:33:15;;;;;;;3.42;1.58;;;;;;;;;;5058201;28;20035;-64
2023/09/04 11:35:42;;;;;;;3.13;1.77;;;;;;;;;;5057749;28;20036;-64
2023/09/04 11:38:26;;;;;;;3.75;1.88;;;;;;;;;;5057228;28;20043;-64
2023/09/04 11:40:53;;;;;;;3.13;1.67;;;;;;;;;;5057101;28;20032;-64
2023/09/04 11:43:19;;;;;;;2.55;1.40;;;;;;;;;;5056849;28;20097;-64
2023/09/04 11:45:45;;;;;;;3.17;1.50;;;;;;;;;;5055095;28;20546;-64
2023/09/04 11:48:15;;;;;;;2.95;1.30;;;;;;;;;;5055471;28;20071;-64
2023/09/04 11:50:44;;;;;;;2.60;1.40;;;;;;;;;;5055789;28;20032;-64
2023/09/04 11:53:10;;;;;;;2.45;1.38;;;;;;;;;;5055495;28;20068;-64
2023/09/04 11:55:36;;;;;;;3.78;1.40;;;;;;;;;;5055527;28;20574;-64
2023/09/04 11:58:03;;;;;;;3.88;1.60;;;;;;;;;;5056837;28;20020;-64
2023/09/04 12:00:29;;;;;;;3.97;1.60;;;;;;;;;;5056907;28;20036;-64
2023/09/04 12:02:55;;;;;;;4.03;1.20;;;;;;;;;;5057580;28;20028;-64
2023/09/04 12:05:21;;;;;;;4.65;1.92;;;;;;;;;;5057497;28;20093;-64
2023/09/04 12:07:47;;;;;;;2.47;1.35;;;;;;;;;;5057314;28;20036;-64
2023/09/04 12:10:13;;;;;;;2.90;1.52;;;;;;;;;;5056270;28;20059;-64
2023/09/04 12:12:39;;;;;;;2.50;1.40;;;;;;;;;;5056776;28;20027;-64
2023/09/04 12:15:06;;;;;;;8.05;2.17;;;;;;;;;;5055032;28;20036;-64
2023/09/04 12:17:32;;;;;;;4.30;1.35;;;;;;;;;;5056354;28;20028;-64
2023/09/04 12:19:58;;;;;;;3.38;1.63;;;;;;;;;;5056492;28;20048;-64
2023/09/04 12:22:24;;;;;;;3.25;1.42;;;;;;;;;;5057123;28;20040;-64
2023/09/04 12:25:03;;;;;;;3.28;1.40;;;;;;;;;;5056367;28;20028;-64
2023/09/04 12:27:30;;;;;;;4.85;1.52;;;;;;;;;;5056905;28;20024;-64
2023/09/04 12:29:56;;;;;;;5.13;1.52;;;;;;;;;;5056593;28;20052;-63
2023/09/04 12:32:22;;;;;;;3.05;1.23;;;;;;;;;;5057204;28;20110;-64
2023/09/04 12:34:59;;;;;;;4.35;1.40;;;;;;;;;;5056809;28;20051;-64
2023/09/04 12:37:25;;;;;;;2.90;1.35;;;;;;;;;;5057214;28;21088;-64
2023/09/04 12:39:51;;;;;;;3.17;1.42;;;;;;;;;;5057027;28;20032;-64
2023/09/04 12:42:17;;;;;;;3.22;1.65;;;;;;;;;;5056303;28;20035;-64
2023/09/04 12:44:43;;;;;;;4.10;1.50;;;;;;;;;;5056860;28;20033;-64
2023/09/04 12:47:09;;;;;;;2.72;1.50;;;;;;;;;;5056038;28;20032;-64
2023/09/04 12:49:35;;;;;;;6.50;2.05;;;;;;;;;;5057091;28;20028;-64
2023/09/04 12:52:01;;;;;;;2.40;1.38;;;;;;;;;;5056516;28;20051;-64
2023/09/04 12:54:28;;;;;;;2.63;1.40;;;;;;;;;;5056859;28;20036;-64
2023/09/04 12:56:54;;;;;;;3.60;1.52;;;;;;;;;;5056532;28;20074;-64
2023/09/04 12:59:20;;;;;;;2.08;1.20;;;;;;;;;;5056106;28;20036;-64
2023/09/04 13:01:46;;;;;;;3.33;1.60;;;;;;;;;;5056184;28;20039;-64
2023/09/04 13:04:12;;;;;;;4.50;1.50;;;;;;;;;;5056885;28;20557;-64
2023/09/04 13:06:38;;;;;;;4.35;1.63;;;;;;;;;;5056706;28;20123;-64
2023/09/04 13:09:06;;;;;;;2.60;1.40;;;;;;;;;;5055135;28;20155;-64
2023/09/04 13:11:32;;;;;;;3.67;1.58;;;;;;;;;;5055138;28;21326;-64
2023/09/04 13:13:58;;;;;;;4.50;1.40;;;;;;;;;;5055308;28;20040;-64
2023/09/04 13:16:24;;;;;;;2.63;1.30;;;;;;;;;;5053231;28;20075;-64
2023/09/04 13:18:51;;;;;;;3.45;1.45;;;;;;;;;;5054332;28;20089;-61
2023/09/04 13:21:17;;;;;;;3.67;1.40;;;;;;;;;;5054941;28;20052;-61
2023/09/04 13:23:44;;;;;;;2.90;1.33;;;;;;;;;;5055662;28;20039;-61
2023/09/04 13:26:10;;;;;;;4.45;1.67;;;;;;;;;;5055770;28;20032;-62
2023/09/04 13:28:36;;;;;;;5.88;1.60;;;;;;;;;;5055333;28;20029;-61
2023/09/04 13:31:02;;;;;;;3.90;1.40;;;;;;;;;;5056127;28;20036;-61
2023/09/04 13:33:28;;;;;;;3.65;1.77;;;;;;;;;;5056488;28;20067;-61
2023/09/04 13:35:54;;;;;;;3.13;1.40;;;;;;;;;;5056428;28;20040;-61
2023/09/04 13:38:20;;;;;;;4.13;1.58;;;;;;;;;;5056460;28;20039;-61
2023/09/04 13:40:46;;;;;;;5.15;1.50;;;;;;;;;;5055575;28;20028;-61
2023/09/04 13:43:12;;;;;;;3.40;1.33;;;;;;;;;;5055190;28;20028;-61
2023/09/04 13:45:38;;;;;;;4.50;1.60;;;;;;;;;;5056335;28;20036;-61
2023/09/04 13:48:04;;;;;;;2.35;1.40;;;;;;;;;;5054637;28;20032;-61
2023/09/04 13:50:31;;;;;;;4.38;1.55;;;;;;;;;;5055948;28;20139;-61
2023/09/04 13:52:57;;;;;;;2.58;1.50;;;;;;;;;;5055648;28;20926;-61
2023/09/04 13:55:23;;;;;;;3.55;1.63;;;;;;;;;;5054387;28;20028;-62
2023/09/04 13:57:49;;;;;;;4.50;1.75;;;;;;;;;;5052796;28;20035;-62
2023/09/04 14:00:16;;;;;;;2.28;1.17;;;;;;;;;;5052936;28;20029;-61
2023/09/04 14:02:42;;;;;;;3.00;1.52;;;;;;;;;;5055006;28;20028;-61
2023/09/04 14:05:11;;;;;;;3.08;1.63;;;;;;;;;;5053737;28;20028;-61
2023/09/04 14:07:37;;;;;;;3.67;1.30;;;;;;;;;;5055680;28;20040;-61
2023/09/04 14:10:03;;;;;;;2.13;1.20;;;;;;;;;;5055693;28;20044;-61
2023/09/04 14:12:30;;;;;;;3.15;1.42;;;;;;;;;;5044514;28;20036;-61
2023/09/04 14:14:57;;;;;;;4.07;1.40;;;;;;;;;;5046587;28;20040;-61
2023/09/04 14:17:23;;;;;;;5.00;1.63;;;;;;;;;;5045863;28;20142;-61
2023/09/04 14:19:49;;;;;;;3.08;1.42;;;;;;;;;;5047659;28;20040;-61
2023/09/04 14:22:15;;;;;;;3.83;1.50;;;;;;;;;;5046664;28;20055;-61
2023/09/04 14:24:41;;;;;;;3.58;1.67;;;;;;;;;;5047395;28;20534;-61
2023/09/04 14:27:07;;;;;;;3.05;1.38;;;;;;;;;;5046491;28;20043;-61
2023/09/04 14:29:33;;;;;;;3.53;1.50;;;;;;;;;;5046759;28;20023;-61
2023/09/04 14:31:59;;;;;;;2.35;1.20;;;;;;;;;;5045765;28;20028;-61
2023/09/04 14:34:25;;;;;;;3.13;1.55;;;;;;;;;;5047846;28;20032;-61
2023/09/04 14:36:51;;;;;;;4.57;1.40;;;;;;;;;;5047059;28;20044;-61
2023/09/04 14:39:18;;;;;;;4.03;1.50;;;;;;;;;;5048095;28;20051;-61